createdAt,value
2023-03-14T00:01:19.087Z,62.13
2023-03-14T00:03:23.866Z,62.88
2023-03-14T00:05:28.640Z,62.71
2023-03-14T00:07:33.318Z,62.78
2023-03-14T00:09:38.029Z,62.63
2023-03-14T00:11:42.720Z,62.75
2023-03-14T00:13:49.541Z,62.99
2023-03-14T00:15:54.207Z,63.01
2023-03-14T00:17:58.934Z,63.35
2023-03-14T00:20:04.326Z,63.34
2023-03-14T00:22:08.973Z,63.16
2023-03-14T00:24:13.744Z,63.53
2023-03-14T00:26:20.320Z,63.90
2023-03-14T00:28:25.077Z,63.77
2023-03-14T00:30:29.793Z,63.87
2023-03-14T00:32:34.679Z,64.36
2023-03-14T00:34:40.084Z,64.40
2023-03-14T00:36:45.321Z,64.18
2023-03-14T00:38:52.713Z,64.12
2023-03-14T00:40:57.354Z,64.11
2023-03-14T00:43:02.019Z,63.82
2023-03-14T00:45:08.236Z,64.14
2023-03-14T00:47:13.015Z,64.36
2023-03-14T00:49:17.660Z,64.23
2023-03-14T00:51:22.335Z,64.15
2023-03-14T00:53:26.998Z,64.05
2023-03-14T00:55:31.678Z,64.20
2023-03-14T00:57:36.320Z,64.06
2023-03-14T00:59:41.195Z,63.95
2023-03-14T01:01:46.035Z,63.93
2023-03-14T01:03:55.482Z,64.04
2023-03-14T01:06:09.525Z,64.18
2023-03-14T01:08:14.332Z,64.32
2023-03-14T01:10:18.935Z,64.39
2023-03-14T01:12:23.672Z,64.04
2023-03-14T01:14:28.426Z,64.33
2023-03-14T01:16:34.676Z,63.99
2023-03-14T01:18:40.561Z,64.44
2023-03-14T01:20:45.204Z,64.37
2023-03-14T01:22:49.841Z,64.55
2023-03-14T01:24:54.638Z,63.55
2023-03-14T01:26:59.275Z,63.82
2023-03-14T01:29:04.500Z,64.01
2023-03-14T01:31:12.865Z,64.10
2023-03-14T01:33:17.638Z,63.88
2023-03-14T01:35:22.657Z,64.06
2023-03-14T01:37:27.359Z,64.12
2023-03-14T01:39:32.201Z,64.18
2023-03-14T01:41:40.642Z,64.19
2023-03-14T01:43:45.522Z,64.30
2023-03-14T01:46:21.056Z,64.47
2023-03-14T01:48:29.578Z,63.97
2023-03-14T01:50:35.480Z,64.00
2023-03-14T01:52:46.239Z,64.35
2023-03-14T01:54:56.093Z,64.18
2023-03-14T01:57:07.816Z,64.91
2023-03-14T01:59:13.635Z,64.91
2023-03-14T02:01:21.150Z,65.03
2023-03-14T02:03:28.001Z,64.68
2023-03-14T02:05:37.573Z,64.86
2023-03-14T02:08:02.136Z,65.15
2023-03-14T02:10:21.891Z,65.23
2023-03-14T02:12:26.919Z,65.23
2023-03-14T02:15:11.592Z,64.81
2023-03-14T02:17:38.798Z,65.20
2023-03-14T02:20:22.569Z,65.28
2023-03-14T02:22:34.028Z,65.37
2023-03-14T02:24:49.259Z,65.80
2023-03-14T02:27:15.246Z,65.57
2023-03-14T02:29:25.050Z,65.41
2023-03-14T02:31:30.137Z,65.75
2023-03-14T02:33:36.367Z,65.58
2023-03-14T02:35:45.446Z,65.87
2023-03-14T02:37:53.061Z,65.90
2023-03-14T02:39:58.635Z,65.83
2023-03-14T02:42:03.859Z,66.45
2023-03-14T02:44:08.516Z,66.18
2023-03-14T02:46:15.170Z,66.28
2023-03-14T02:48:22.875Z,66.35
2023-03-14T02:50:31.823Z,66.37
2023-03-14T02:52:36.569Z,66.71
2023-03-14T02:54:41.165Z,66.80
2023-03-14T02:56:45.822Z,67.04
2023-03-14T02:58:51.216Z,67.15
2023-03-14T03:01:25.238Z,67.10
2023-03-14T03:03:30.308Z,67.27
2023-03-14T03:05:35.093Z,67.03
2023-03-14T03:07:40.559Z,67.20
2023-03-14T03:09:45.190Z,66.97
2023-03-14T03:11:49.927Z,67.08
2023-03-14T03:13:57.835Z,67.13
2023-03-14T03:16:02.578Z,67.41
2023-03-14T03:18:07.755Z,67.57
2023-03-14T03:20:13.014Z,67.84
2023-03-14T03:22:17.713Z,68.11
2023-03-14T03:24:22.392Z,68.15
2023-03-14T03:26:27.123Z,68.72
2023-03-14T03:28:32.010Z,68.78
2023-03-14T03:30:40.086Z,69.20
2023-03-14T03:32:45.138Z,69.49
2023-03-14T03:34:49.956Z,69.73
2023-03-14T03:36:56.586Z,69.90
2023-03-14T03:39:05.882Z,69.92
2023-03-14T03:41:10.547Z,70.18
2023-03-14T03:43:15.165Z,70.53
2023-03-14T03:45:21.664Z,70.39
2023-03-14T03:47:31.009Z,70.10
2023-03-14T03:49:35.873Z,70.04
2023-03-14T03:51:42.042Z,69.81
2023-03-14T03:53:46.827Z,69.57
2023-03-14T03:55:53.101Z,69.16
2023-03-14T03:57:57.821Z,69.07
2023-03-14T04:00:02.605Z,68.75
2023-03-14T04:02:18.901Z,68.67
2023-03-14T04:04:23.838Z,68.16
2023-03-14T04:06:28.787Z,67.89
2023-03-14T04:08:36.398Z,67.83
2023-03-14T04:10:41.508Z,67.61
2023-03-14T04:12:54.291Z,67.25
2023-03-14T04:15:02.139Z,66.87
2023-03-14T04:17:08.311Z,67.16
2023-03-14T04:19:13.029Z,66.89
2023-03-14T04:21:18.419Z,66.72
2023-03-14T04:23:27.180Z,66.69
2023-03-14T04:25:33.180Z,66.42
2023-03-14T04:27:41.439Z,66.25
2023-03-14T04:29:54.534Z,66.56
2023-03-14T04:32:10.565Z,66.22
2023-03-14T04:34:16.620Z,66.16
2023-03-14T04:36:27.274Z,66.28
2023-03-14T04:38:34.237Z,65.91
2023-03-14T04:40:41.040Z,65.76
2023-03-14T04:42:46.041Z,65.98
2023-03-14T04:44:51.054Z,65.98
2023-03-14T04:46:57.755Z,65.88
2023-03-14T04:49:03.317Z,65.62
2023-03-14T04:51:08.835Z,65.73
2023-03-14T04:53:14.278Z,65.58
2023-03-14T04:55:22.393Z,65.82
2023-03-14T04:57:28.632Z,65.72
2023-03-14T04:59:36.410Z,65.79
2023-03-14T05:01:51.734Z,65.39
2023-03-14T05:04:05.913Z,65.33
2023-03-14T05:06:28.403Z,65.29
2023-03-14T05:09:02.502Z,65.55
2023-03-14T05:11:13.646Z,65.84
2023-03-14T05:13:29.565Z,65.28
2023-03-14T05:15:50.794Z,65.14
2023-03-14T05:18:06.505Z,65.06
2023-03-14T05:20:29.636Z,64.91
2023-03-14T05:22:56.930Z,64.89
2023-03-14T05:25:32.562Z,64.43
2023-03-14T05:28:03.459Z,64.33
2023-03-14T05:30:23.675Z,63.98
2023-03-14T05:32:45.255Z,64.12
2023-03-14T05:35:19.331Z,63.49
2023-03-14T05:37:42.394Z,63.12
2023-03-14T05:39:56.112Z,63.35
2023-03-14T05:42:14.095Z,63.40
2023-03-14T05:44:33.016Z,63.51
2023-03-14T05:46:52.506Z,63.30
2023-03-14T05:49:23.768Z,63.25
2023-03-14T05:51:46.685Z,63.49
2023-03-14T05:54:17.524Z,63.32
2023-03-14T05:56:44.809Z,63.33
2023-03-14T05:59:03.090Z,63.03
2023-03-14T06:01:17.498Z,62.88
2023-03-14T06:03:36.821Z,62.87
2023-03-14T06:05:41.964Z,62.72
2023-03-14T06:07:46.813Z,62.58
2023-03-14T06:09:51.747Z,62.47
2023-03-14T06:11:56.541Z,62.37
2023-03-14T06:14:01.573Z,62.19
2023-03-14T06:16:07.456Z,62.21
2023-03-14T06:18:13.305Z,62.17
2023-03-14T06:20:18.474Z,62.30
2023-03-14T06:22:23.332Z,62.41
2023-03-14T06:24:28.013Z,62.72
2023-03-14T06:26:35.553Z,62.67
2023-03-14T06:28:40.231Z,62.83
2023-03-14T06:30:44.998Z,62.98
2023-03-14T06:32:50.035Z,63.19
2023-03-14T06:34:55.282Z,63.04
2023-03-14T06:36:59.969Z,63.30
2023-03-14T06:39:05.728Z,63.23
2023-03-14T06:41:12.419Z,63.56
2023-03-14T06:43:19.627Z,63.09
2023-03-14T06:45:24.550Z,63.55
2023-03-14T06:47:29.534Z,63.18
2023-03-14T06:49:34.342Z,63.39
2023-03-14T06:51:39.332Z,63.05
2023-03-14T06:53:44.458Z,62.80
2023-03-14T06:55:51.496Z,62.28
2023-03-14T06:57:56.426Z,62.22
2023-03-14T07:00:02.784Z,62.20
2023-03-14T07:02:11.377Z,62.18
2023-03-14T07:04:17.706Z,61.59
2023-03-14T07:06:25.046Z,61.57
2023-03-14T07:08:29.730Z,61.31
2023-03-14T07:10:36.196Z,61.16
2023-03-14T07:12:40.870Z,60.86
2023-03-14T07:14:45.733Z,60.19
2023-03-14T07:16:50.414Z,59.94
2023-03-14T07:18:55.328Z,59.71
2023-03-14T07:20:59.923Z,59.47
2023-03-14T07:23:04.671Z,59.54
2023-03-14T07:25:14.730Z,59.15
2023-03-14T07:27:19.412Z,59.37
2023-03-14T07:29:24.817Z,59.40
2023-03-14T07:31:32.995Z,59.24
2023-03-14T07:33:40.733Z,59.92
2023-03-14T07:35:45.479Z,60.24
2023-03-14T07:37:50.392Z,60.60
2023-03-14T07:39:56.623Z,61.37
2023-03-14T07:42:04.469Z,61.37
2023-03-14T07:44:37.198Z,61.39
2023-03-14T07:46:41.917Z,61.47
2023-03-14T07:48:47.400Z,61.34
2023-03-14T07:50:55.411Z,61.02
2023-03-14T07:53:00.139Z,60.56
2023-03-14T07:55:05.448Z,60.25
2023-03-14T07:57:10.093Z,60.29
2023-03-14T07:59:15.953Z,60.17
2023-03-14T08:01:20.645Z,60.14
2023-03-14T08:03:25.452Z,60.54
2023-03-14T08:05:30.374Z,60.77
2023-03-14T08:07:35.073Z,61.26
2023-03-14T08:09:39.815Z,61.91
2023-03-14T08:11:44.531Z,62.46
2023-03-14T08:13:49.330Z,62.65
2023-03-14T08:15:54.077Z,62.54
2023-03-14T08:17:59.023Z,61.60
2023-03-14T08:20:04.264Z,61.21
2023-03-14T08:22:08.902Z,61.35
2023-03-14T08:24:13.533Z,61.79
2023-03-14T08:26:18.204Z,62.56
2023-03-14T08:28:22.832Z,62.04
2023-03-14T08:30:27.703Z,61.35
2023-03-14T08:32:32.451Z,61.31
2023-03-14T08:34:37.209Z,61.20
2023-03-14T08:36:41.942Z,61.31
2023-03-14T08:38:47.087Z,61.21
2023-03-14T08:40:55.666Z,61.19
2023-03-14T08:43:00.320Z,61.02
2023-03-14T08:45:06.526Z,60.90
2023-03-14T08:47:11.366Z,61.00
2023-03-14T08:49:16.184Z,61.35
2023-03-14T08:51:20.882Z,61.18
2023-03-14T08:53:25.572Z,61.04
2023-03-14T08:55:30.239Z,60.67
2023-03-14T08:57:34.873Z,60.56
2023-03-14T08:59:39.709Z,60.32
2023-03-14T09:01:44.426Z,60.16
2023-03-14T09:03:49.133Z,60.38
2023-03-14T09:05:54.378Z,60.12
2023-03-14T09:07:59.047Z,59.97
2023-03-14T09:10:06.463Z,59.87
2023-03-14T09:12:11.127Z,59.62
2023-03-14T09:14:15.859Z,59.49
2023-03-14T09:16:20.574Z,59.39
2023-03-14T09:18:25.391Z,59.33
2023-03-14T09:20:30.161Z,59.26
2023-03-14T09:22:34.841Z,59.45
2023-03-14T09:24:40.749Z,59.38
2023-03-14T09:26:45.536Z,59.49
2023-03-14T09:28:50.219Z,59.54
2023-03-14T09:30:54.847Z,59.47
2023-03-14T09:32:59.587Z,59.43
2023-03-14T09:35:04.550Z,59.27
2023-03-14T09:37:09.257Z,59.25
2023-03-14T09:39:14.037Z,59.23
2023-03-14T09:41:22.805Z,59.22
2023-03-14T09:43:29.416Z,59.10
2023-03-14T09:45:37.252Z,58.97
2023-03-14T09:47:56.482Z,59.07
2023-03-14T09:50:04.334Z,59.20
2023-03-14T09:52:15.552Z,59.20
2023-03-14T09:54:33.081Z,59.08
2023-03-14T09:56:37.858Z,59.25
2023-03-14T09:58:45.286Z,59.13
2023-03-14T10:00:53.266Z,59.13
2023-03-14T10:03:04.025Z,59.29
2023-03-14T10:05:15.888Z,58.99
2023-03-14T10:07:26.589Z,58.88
2023-03-14T10:09:31.219Z,59.00
2023-03-14T10:11:35.995Z,58.88
2023-03-14T10:13:50.658Z,58.53
2023-03-14T10:15:59.563Z,58.51
2023-03-14T10:18:10.166Z,58.53
2023-03-14T10:20:33.463Z,58.36
2023-03-14T10:22:38.221Z,58.30
2023-03-14T10:24:48.051Z,58.25
2023-03-14T10:26:55.332Z,58.05
2023-03-14T10:29:09.790Z,58.02
2023-03-14T10:31:15.059Z,57.90
2023-03-14T10:33:25.290Z,57.92
2023-03-14T10:35:34.873Z,57.73
2023-03-14T10:37:53.214Z,57.78
2023-03-14T10:40:02.554Z,57.66
2023-03-14T10:42:15.459Z,57.52
2023-03-14T10:44:24.174Z,57.59
2023-03-14T10:46:33.389Z,57.38
2023-03-14T10:48:57.303Z,58.20
2023-03-14T10:51:07.412Z,58.95
2023-03-14T10:53:12.025Z,59.54
2023-03-14T10:55:17.551Z,59.55
2023-03-14T10:57:23.600Z,59.17
2023-03-14T10:59:32.222Z,58.98
2023-03-14T11:01:42.868Z,58.69
2023-03-14T11:03:55.124Z,58.33
2023-03-14T11:06:05.965Z,57.86
2023-03-14T11:08:16.236Z,58.10
2023-03-14T11:10:27.394Z,58.20
2023-03-14T11:12:42.385Z,57.95
2023-03-14T11:14:52.303Z,57.74
2023-03-14T11:17:02.745Z,57.44
2023-03-14T11:19:20.988Z,57.34
2023-03-14T11:21:32.436Z,57.35
2023-03-14T11:23:43.263Z,57.27
2023-03-14T11:25:57.447Z,56.94
2023-03-14T11:28:16.623Z,57.20
2023-03-14T11:30:30.709Z,56.67
2023-03-14T11:32:45.813Z,56.57
2023-03-14T11:34:53.990Z,56.70
2023-03-14T11:37:05.561Z,56.62
2023-03-14T11:39:15.279Z,56.38
2023-03-14T11:41:24.487Z,56.26
2023-03-14T11:43:33.740Z,56.21
2023-03-14T11:45:42.079Z,56.32
2023-03-14T11:47:52.815Z,56.21
2023-03-14T11:50:03.914Z,56.30
2023-03-14T11:52:15.573Z,56.46
2023-03-14T11:54:26.553Z,56.54
2023-03-14T11:56:38.738Z,56.65
2023-03-14T11:58:52.539Z,57.04
2023-03-14T12:00:58.722Z,57.48
2023-03-14T12:03:11.932Z,57.64
2023-03-14T12:05:47.553Z,57.88
2023-03-14T12:08:16.045Z,57.98
2023-03-14T12:10:20.851Z,58.10
2023-03-14T12:12:27.992Z,58.28
2023-03-14T12:14:35.635Z,58.36
2023-03-14T12:16:41.762Z,58.34
2023-03-14T12:18:46.584Z,58.62
2023-03-14T12:20:58.489Z,58.74
2023-03-14T12:23:11.668Z,58.78
2023-03-14T12:25:22.759Z,58.83
2023-03-14T12:27:45.681Z,58.71
2023-03-14T12:30:11.383Z,58.83
2023-03-14T12:32:26.928Z,59.09
2023-03-14T12:34:34.703Z,59.19
2023-03-14T12:37:05.558Z,59.12
2023-03-14T12:39:20.485Z,59.42
2023-03-14T12:41:28.926Z,59.40
2023-03-14T12:43:35.505Z,59.54
2023-03-14T12:45:40.423Z,59.48
2023-03-14T12:47:54.180Z,59.32
2023-03-14T12:50:08.219Z,59.49
2023-03-14T12:52:17.434Z,59.60
2023-03-14T12:54:44.682Z,59.43
2023-03-14T12:57:12.946Z,59.65
2023-03-14T12:59:32.431Z,59.63
2023-03-14T13:01:37.588Z,59.77
2023-03-14T13:03:48.414Z,59.60
2023-03-14T13:05:58.296Z,59.77
2023-03-14T13:08:10.228Z,59.64
2023-03-14T13:10:23.657Z,59.69
2023-03-14T13:12:35.834Z,59.70
2023-03-14T13:14:45.952Z,59.80
2023-03-14T13:16:51.084Z,59.84
2023-03-14T13:19:05.374Z,59.92
2023-03-14T13:21:15.710Z,59.81
2023-03-14T13:23:25.912Z,60.01
2023-03-14T13:25:35.507Z,60.00
2023-03-14T13:27:41.597Z,60.07
2023-03-14T13:29:46.318Z,60.16
2023-03-14T13:31:52.973Z,60.12
2023-03-14T13:34:07.486Z,60.28
2023-03-14T13:36:12.741Z,60.09
2023-03-14T13:38:20.403Z,60.19
2023-03-14T13:40:30.466Z,60.26
2023-03-14T13:42:35.244Z,60.26
2023-03-14T13:44:41.876Z,60.19
2023-03-14T13:46:46.677Z,60.36
2023-03-14T13:48:54.520Z,60.33
2023-03-14T13:51:03.357Z,60.63
2023-03-14T13:53:12.009Z,60.65
2023-03-14T13:55:19.422Z,60.72
2023-03-14T13:57:24.282Z,60.60
2023-03-14T13:59:33.824Z,60.37
2023-03-14T14:01:48.083Z,60.34
2023-03-14T14:03:55.676Z,60.58
2023-03-14T14:06:00.991Z,60.35
2023-03-14T14:08:06.710Z,60.67
2023-03-14T14:10:14.234Z,60.70
2023-03-14T14:12:22.224Z,60.74
2023-03-14T14:14:32.276Z,60.76
2023-03-14T14:16:37.112Z,60.88
2023-03-14T14:18:41.994Z,60.94
2023-03-14T14:20:48.301Z,61.26
2023-03-14T14:22:54.040Z,61.32
2023-03-14T14:24:58.842Z,61.45
2023-03-14T14:27:11.393Z,61.12
2023-03-14T14:29:26.425Z,60.95
2023-03-14T14:31:31.442Z,61.11
2023-03-14T14:33:44.229Z,60.80
2023-03-14T14:35:57.579Z,60.87
2023-03-14T14:38:03.628Z,60.69
2023-03-14T14:40:19.856Z,60.53
2023-03-14T14:42:28.827Z,60.33
2023-03-14T14:44:35.690Z,60.00
2023-03-14T14:46:40.952Z,59.77
2023-03-14T14:48:45.650Z,59.90
2023-03-14T14:50:59.874Z,59.54
2023-03-14T14:53:20.281Z,59.13
2023-03-14T14:55:29.811Z,58.73
2023-03-14T14:57:39.920Z,58.80
2023-03-14T14:59:45.958Z,58.63
2023-03-14T15:01:50.839Z,58.53
2023-03-14T15:03:56.230Z,58.34
2023-03-14T15:06:01.625Z,58.43
2023-03-14T15:08:11.661Z,58.37
2023-03-14T15:10:18.431Z,58.20
2023-03-14T15:12:23.122Z,58.30
2023-03-14T15:14:27.858Z,58.47
2023-03-14T15:16:33.968Z,58.41
2023-03-14T15:18:38.802Z,58.20
2023-03-14T15:20:43.614Z,58.46
2023-03-14T15:22:48.708Z,59.61
2023-03-14T15:24:53.695Z,59.40
2023-03-14T15:26:58.351Z,59.67
2023-03-14T15:29:04.318Z,60.17
2023-03-14T15:31:12.068Z,59.87
2023-03-14T15:33:17.260Z,60.36
2023-03-14T15:35:22.004Z,60.71
2023-03-14T15:37:28.496Z,61.27
2023-03-14T15:39:35.579Z,61.68
2023-03-14T15:41:40.400Z,62.20
2023-03-14T15:43:45.146Z,62.21
2023-03-14T15:45:49.815Z,62.26
2023-03-14T15:47:54.628Z,62.18
2023-03-14T15:49:59.329Z,61.94
2023-03-14T15:52:04.213Z,62.04
2023-03-14T15:54:09.110Z,61.85
2023-03-14T15:56:16.987Z,62.19
2023-03-14T15:58:22.507Z,62.18
2023-03-14T16:00:27.424Z,62.23
2023-03-14T16:02:32.296Z,62.32
2023-03-14T16:04:37.109Z,62.29
2023-03-14T16:06:47.984Z,62.79
2023-03-14T16:08:52.882Z,63.15
2023-03-14T16:10:59.253Z,63.54
2023-03-14T16:13:03.992Z,63.80
2023-03-14T16:15:11.120Z,63.96
2023-03-14T16:17:18.893Z,64.14
2023-03-14T16:19:24.873Z,64.14
2023-03-14T16:21:29.895Z,64.27
2023-03-14T16:23:37.299Z,64.29
2023-03-14T16:25:44.436Z,64.58
2023-03-14T16:27:51.585Z,65.02
2023-03-14T16:30:02.840Z,66.98
2023-03-14T16:32:08.355Z,66.94
2023-03-14T16:34:13.448Z,67.40
2023-03-14T16:36:18.398Z,67.68
2023-03-14T16:38:31.572Z,67.58
2023-03-14T16:40:38.280Z,67.27
2023-03-14T16:43:11.699Z,67.35
2023-03-14T16:45:11.926Z,67.90
2023-03-14T16:47:16.771Z,68.02
2023-03-14T16:49:21.961Z,68.51
2023-03-14T16:51:27.146Z,68.65
2023-03-14T16:53:34.570Z,68.86
2023-03-14T16:55:43.804Z,69.05
2023-03-14T16:57:49.009Z,68.65
2023-03-14T16:59:55.006Z,68.51
2023-03-14T17:02:00.453Z,68.97
2023-03-14T17:04:06.815Z,69.24
2023-03-14T17:06:14.080Z,69.12
2023-03-14T17:08:20.311Z,68.93
2023-03-14T17:10:25.466Z,69.03
2023-03-14T17:12:30.798Z,68.89
2023-03-14T17:14:35.633Z,69.03
2023-03-14T17:16:40.488Z,68.85
2023-03-14T17:18:47.760Z,68.78
2023-03-14T17:20:54.846Z,68.86
2023-03-14T17:23:01.975Z,68.72
2023-03-14T17:25:09.341Z,68.67
2023-03-14T17:27:14.742Z,68.89
2023-03-14T17:29:19.744Z,68.85
2023-03-14T17:31:25.390Z,69.02
2023-03-14T17:33:32.599Z,69.11
2023-03-14T17:35:38.283Z,68.90
2023-03-14T17:37:48.007Z,68.70
2023-03-14T17:39:54.492Z,68.84
2023-03-14T17:41:59.986Z,68.58
2023-03-14T17:44:05.922Z,68.34
2023-03-14T17:46:12.681Z,68.03
2023-03-14T17:48:18.875Z,68.15
2023-03-14T17:50:28.766Z,68.39
2023-03-14T17:52:35.682Z,68.47
2023-03-14T17:54:42.597Z,68.58
2023-03-14T17:56:48.586Z,68.74
2023-03-14T17:59:09.488Z,69.02
2023-03-14T18:01:17.972Z,69.41
2023-03-14T18:03:28.827Z,69.59
2023-03-14T18:05:41.769Z,69.52
2023-03-14T18:07:47.159Z,69.39
2023-03-14T18:09:52.939Z,69.76
2023-03-14T18:12:07.501Z,69.70
2023-03-14T18:14:14.473Z,69.94
2023-03-14T18:16:21.358Z,69.92
2023-03-14T18:18:27.717Z,69.96
2023-03-14T18:20:34.564Z,70.02
2023-03-14T18:22:42.130Z,70.04
2023-03-14T18:24:52.692Z,70.03
2023-03-14T18:26:59.447Z,69.77
2023-03-14T18:29:10.226Z,69.69
2023-03-14T18:31:20.116Z,69.08
2023-03-14T18:33:27.758Z,68.37
2023-03-14T18:35:37.328Z,67.63
2023-03-14T18:37:46.031Z,67.36
2023-03-14T18:39:56.375Z,67.02
2023-03-14T18:42:03.429Z,66.26
2023-03-14T18:44:11.563Z,66.00
2023-03-14T18:46:23.203Z,65.90
2023-03-14T18:48:32.725Z,65.68
2023-03-14T18:50:39.556Z,65.86
2023-03-14T18:52:49.096Z,65.53
2023-03-14T18:54:59.278Z,65.20
2023-03-14T18:57:06.993Z,65.19
2023-03-14T18:59:13.587Z,65.81
2023-03-14T19:01:25.073Z,66.25
2023-03-14T19:03:37.294Z,66.14
2023-03-14T19:05:48.200Z,65.78
2023-03-14T19:07:54.365Z,65.69
2023-03-14T19:10:03.086Z,65.80
2023-03-14T19:12:10.474Z,65.85
2023-03-14T19:14:18.343Z,65.73
2023-03-14T19:16:25.317Z,65.88
2023-03-14T19:18:31.880Z,65.93
2023-03-14T19:20:43.299Z,66.39
2023-03-14T19:22:54.323Z,66.64
2023-03-14T19:25:00.887Z,66.98
2023-03-14T19:27:07.122Z,67.37
2023-03-14T19:29:14.501Z,67.37
2023-03-14T19:31:20.985Z,67.43
2023-03-14T19:33:27.964Z,67.61
2023-03-14T19:35:34.984Z,67.71
2023-03-14T19:37:41.726Z,67.60
2023-03-14T19:39:51.853Z,67.12
2023-03-14T19:41:58.710Z,66.87
2023-03-14T19:44:06.534Z,66.60
2023-03-14T19:46:13.412Z,66.62
2023-03-14T19:48:19.958Z,66.69
2023-03-14T19:50:27.027Z,66.33
2023-03-14T19:52:35.627Z,66.12
2023-03-14T19:54:42.255Z,65.58
2023-03-14T19:56:54.439Z,65.72
2023-03-14T19:59:02.427Z,65.77
2023-03-14T20:01:09.956Z,65.29
2023-03-14T20:03:17.579Z,64.94
2023-03-14T20:05:25.972Z,64.60
2023-03-14T20:07:34.787Z,64.34
2023-03-14T20:09:42.316Z,64.21
2023-03-14T20:11:49.595Z,63.92
2023-03-14T20:14:00.288Z,63.66
2023-03-14T20:16:08.061Z,63.81
2023-03-14T20:18:14.930Z,63.35
2023-03-14T20:20:23.259Z,63.11
2023-03-14T20:22:30.410Z,62.75
2023-03-14T20:24:38.434Z,62.60
2023-03-14T20:26:49.615Z,62.33
2023-03-14T20:28:57.034Z,62.68
2023-03-14T20:31:06.812Z,62.59
2023-03-14T20:33:13.363Z,62.60
2023-03-14T20:35:20.881Z,62.85
2023-03-14T20:37:27.848Z,62.86
2023-03-14T20:39:35.826Z,63.05
2023-03-14T20:41:43.434Z,62.95
2023-03-14T20:43:49.666Z,62.71
2023-03-14T20:45:58.619Z,62.34
2023-03-14T20:48:05.545Z,61.82
2023-03-14T20:50:13.093Z,61.31
2023-03-14T20:52:23.086Z,61.42
2023-03-14T20:54:30.200Z,61.64
2023-03-14T20:56:37.321Z,61.72
2023-03-14T20:58:48.348Z,61.08
2023-03-14T21:00:56.995Z,59.88
2023-03-14T21:03:02.853Z,57.19
2023-03-14T21:05:10.555Z,56.72
2023-03-14T21:07:18.043Z,56.68
2023-03-14T21:09:26.241Z,55.97
2023-03-14T21:11:32.702Z,55.83
2023-03-14T21:13:38.851Z,55.30
2023-03-14T21:15:47.824Z,55.35
2023-03-14T21:17:53.916Z,54.80
2023-03-14T21:20:00.441Z,54.28
2023-03-14T21:22:07.241Z,54.65
2023-03-14T21:24:12.690Z,54.77
2023-03-14T21:26:17.836Z,54.19
2023-03-14T21:28:23.265Z,53.87
2023-03-14T21:30:29.002Z,53.50
2023-03-14T21:32:35.291Z,53.69
2023-03-14T21:34:44.085Z,52.79
2023-03-14T21:36:49.154Z,52.88
2023-03-14T21:38:55.131Z,52.48
2023-03-14T21:41:00.614Z,52.70
2023-03-14T21:43:05.774Z,52.17
2023-03-14T21:45:15.216Z,52.75
2023-03-14T21:47:20.445Z,52.84
2023-03-14T21:49:25.331Z,52.40
2023-03-14T21:51:30.670Z,52.79
2023-03-14T21:53:35.672Z,52.80
2023-03-14T21:55:44.662Z,52.72
2023-03-14T21:57:50.269Z,52.07
2023-03-14T21:59:55.264Z,52.48
2023-03-14T22:02:00.106Z,52.37
2023-03-14T22:04:04.944Z,51.98
2023-03-14T22:06:09.745Z,51.66
2023-03-14T22:08:17.193Z,51.13
2023-03-14T22:10:21.962Z,51.01
2023-03-14T22:12:26.544Z,51.28
2023-03-14T22:14:31.305Z,50.69
2023-03-14T22:16:35.981Z,51.21
2023-03-14T22:18:40.761Z,50.59
2023-03-14T22:20:46.176Z,50.78
2023-03-14T22:22:50.819Z,50.81
2023-03-14T22:24:55.767Z,50.42
2023-03-14T22:27:00.359Z,50.51
2023-03-14T22:29:05.256Z,50.55
2023-03-14T22:31:10.733Z,50.20
2023-03-14T22:33:15.974Z,50.13
2023-03-14T22:35:20.750Z,49.87
2023-03-14T22:37:25.374Z,49.63
2023-03-14T22:39:30.230Z,49.95
2023-03-14T22:41:36.658Z,50.24
2023-03-14T22:43:41.340Z,50.01
2023-03-14T22:45:46.213Z,49.78
2023-03-14T22:47:50.828Z,49.91
2023-03-14T22:49:55.420Z,49.95
2023-03-14T22:52:00.032Z,50.09
2023-03-14T22:54:04.744Z,50.14
2023-03-14T22:56:10.228Z,50.10
2023-03-14T22:58:15.100Z,49.78
2023-03-14T23:00:21.202Z,50.03
2023-03-14T23:02:26.397Z,50.15
2023-03-14T23:04:30.969Z,50.66
2023-03-14T23:06:35.667Z,50.92
2023-03-14T23:08:40.229Z,51.13
2023-03-14T23:10:46.365Z,51.34
2023-03-14T23:12:50.941Z,51.66
2023-03-14T23:14:55.579Z,52.44
2023-03-14T23:17:00.302Z,52.56
2023-03-14T23:19:05.124Z,52.55
2023-03-14T23:21:12.589Z,52.65
2023-03-14T23:23:17.178Z,52.50
2023-03-14T23:25:21.777Z,53.12
2023-03-14T23:27:26.643Z,53.29
2023-03-14T23:29:31.261Z,53.37
2023-03-14T23:31:35.864Z,53.91
2023-03-14T23:33:40.963Z,53.98
2023-03-14T23:35:45.589Z,54.37
2023-03-14T23:37:50.326Z,54.72
2023-03-14T23:39:54.925Z,54.67
2023-03-14T23:41:59.461Z,54.80
2023-03-14T23:44:04.425Z,55.15
2023-03-14T23:46:09.232Z,55.15
2023-03-14T23:48:13.913Z,55.50
2023-03-14T23:50:18.749Z,55.70
2023-03-14T23:52:23.361Z,55.67
2023-03-14T23:54:27.993Z,55.89
2023-03-14T23:56:32.654Z,55.96
2023-03-14T23:58:37.270Z,55.63
